createdAt,value
2022-09-14T00:00:07.227Z,19.34
2022-09-14T00:02:39.952Z,19.37
2022-09-14T00:05:11.277Z,19.39
2022-09-14T00:07:43.987Z,19.40
2022-09-14T00:10:14.159Z,19.36
2022-09-14T00:12:44.257Z,19.38
2022-09-14T00:15:14.535Z,19.42
2022-09-14T00:17:44.581Z,19.42
2022-09-14T00:20:15.203Z,19.41
2022-09-14T00:22:48.537Z,19.39
2022-09-14T00:25:18.758Z,19.36
2022-09-14T00:27:48.827Z,19.36
2022-09-14T00:30:19.028Z,19.39
2022-09-14T00:32:49.159Z,19.36
2022-09-14T00:35:19.546Z,19.35
2022-09-14T00:37:54.415Z,19.35
2022-09-14T00:40:24.642Z,19.38
2022-09-14T00:42:54.904Z,19.41
2022-09-14T00:45:26.279Z,19.33
2022-09-14T00:47:57.401Z,19.31
2022-09-14T00:50:27.502Z,19.30
2022-09-14T00:53:00.202Z,19.30
2022-09-14T00:55:30.940Z,19.27
2022-09-14T00:58:00.780Z,19.25
2022-09-14T01:00:33.662Z,19.23
2022-09-14T01:03:03.808Z,19.23
2022-09-14T01:05:50.592Z,19.22
2022-09-14T01:08:39.099Z,19.21
2022-09-14T01:11:32.898Z,19.20
2022-09-14T01:14:11.190Z,19.18
2022-09-14T01:16:51.562Z,19.17
2022-09-14T01:19:31.327Z,19.15
2022-09-14T01:22:13.012Z,19.17
2022-09-14T01:24:49.957Z,19.16
2022-09-14T01:27:31.932Z,19.11
2022-09-14T01:30:10.465Z,19.09
2022-09-14T01:32:47.808Z,19.06
2022-09-14T01:35:29.139Z,19.07
2022-09-14T01:38:04.525Z,19.10
2022-09-14T01:40:40.326Z,19.08
2022-09-14T01:43:19.068Z,19.08
2022-09-14T01:45:54.922Z,19.09
2022-09-14T01:48:31.074Z,19.08
2022-09-14T01:51:06.754Z,19.08
2022-09-14T01:53:43.414Z,19.08
2022-09-14T01:56:20.549Z,19.06
2022-09-14T01:58:57.485Z,19.08
2022-09-14T02:01:34.189Z,19.11
2022-09-14T02:04:11.942Z,19.09
2022-09-14T02:06:46.461Z,19.05
2022-09-14T02:09:22.920Z,18.99
2022-09-14T02:11:53.041Z,19.01
2022-09-14T02:14:26.254Z,19.04
2022-09-14T02:16:56.543Z,19.04
2022-09-14T02:19:28.956Z,19.08
2022-09-14T02:21:59.132Z,19.07
2022-09-14T02:24:30.466Z,19.10
2022-09-14T02:27:01.858Z,19.07
2022-09-14T02:29:34.754Z,19.10
2022-09-14T02:32:20.868Z,19.12
2022-09-14T02:35:00.667Z,19.12
2022-09-14T02:37:42.514Z,19.13
2022-09-14T02:40:21.176Z,19.16
2022-09-14T02:43:01.972Z,19.19
2022-09-14T02:45:43.772Z,19.23
2022-09-14T02:48:24.007Z,19.25
2022-09-14T02:51:00.412Z,19.25
2022-09-14T02:53:38.456Z,19.25
2022-09-14T02:56:12.360Z,19.28
2022-09-14T02:58:45.151Z,19.25
2022-09-14T03:01:22.888Z,19.22
2022-09-14T03:03:53.236Z,19.21
2022-09-14T03:06:23.310Z,19.21
2022-09-14T03:08:53.563Z,19.27
2022-09-14T03:11:23.771Z,19.27
2022-09-14T03:13:53.860Z,19.25
2022-09-14T03:16:26.597Z,19.27
2022-09-14T03:18:56.744Z,19.26
2022-09-14T03:21:26.827Z,19.23
2022-09-14T03:23:58.051Z,19.23
2022-09-14T03:26:30.195Z,19.21
2022-09-14T03:29:02.075Z,19.17
2022-09-14T03:31:35.250Z,19.15
2022-09-14T03:34:05.661Z,19.12
2022-09-14T03:36:35.798Z,19.09
2022-09-14T03:39:06.161Z,19.08
2022-09-14T03:41:36.166Z,19.06
2022-09-14T03:44:06.381Z,19.04
2022-09-14T03:46:39.130Z,19.02
2022-09-14T03:49:09.553Z,18.99
2022-09-14T03:51:39.611Z,18.96
2022-09-14T03:54:09.765Z,18.94
2022-09-14T03:56:39.872Z,18.90
2022-09-14T03:59:11.876Z,18.88
2022-09-14T04:01:44.633Z,18.88
2022-09-14T04:04:15.256Z,18.88
2022-09-14T04:06:45.433Z,18.85
2022-09-14T04:09:15.820Z,18.86
2022-09-14T04:11:45.937Z,18.86
2022-09-14T04:14:16.947Z,18.86
2022-09-14T04:16:50.048Z,18.90
2022-09-14T04:19:20.661Z,18.88
2022-09-14T04:21:50.714Z,18.88
2022-09-14T04:24:22.147Z,18.88
2022-09-14T04:26:53.764Z,18.91
2022-09-14T04:29:23.780Z,18.91
2022-09-14T04:31:56.392Z,18.90
2022-09-14T04:34:26.456Z,18.93
2022-09-14T04:36:56.517Z,18.94
2022-09-14T04:39:27.029Z,18.90
2022-09-14T04:41:57.085Z,18.89
2022-09-14T04:44:27.899Z,18.90
2022-09-14T04:47:00.593Z,18.87
2022-09-14T04:49:31.111Z,18.88
2022-09-14T04:52:01.194Z,18.89
2022-09-14T04:54:31.413Z,18.88
2022-09-14T04:57:01.559Z,18.89
2022-09-14T04:59:31.651Z,18.89
2022-09-14T05:02:04.375Z,18.91
2022-09-14T05:04:34.501Z,18.95
2022-09-14T05:07:04.671Z,18.96
2022-09-14T05:09:34.766Z,18.98
2022-09-14T05:12:05.559Z,18.99
2022-09-14T05:14:35.377Z,18.97
2022-09-14T05:17:08.107Z,18.97
2022-09-14T05:19:38.150Z,18.96
2022-09-14T05:22:08.119Z,18.94
2022-09-14T05:24:38.546Z,18.94
2022-09-14T05:27:08.709Z,18.95
2022-09-14T05:29:40.344Z,18.96
2022-09-14T05:32:12.988Z,18.94
2022-09-14T05:34:43.084Z,18.97
2022-09-14T05:37:14.619Z,18.98
2022-09-14T05:39:44.688Z,19.01
2022-09-14T05:42:14.790Z,19.04
2022-09-14T05:44:44.882Z,19.01
2022-09-14T05:47:17.564Z,19.03
2022-09-14T05:49:47.597Z,19.05
2022-09-14T05:52:17.620Z,19.09
2022-09-14T05:54:47.808Z,19.11
2022-09-14T05:57:17.892Z,19.12
2022-09-14T05:59:47.935Z,19.13
2022-09-14T06:02:21.052Z,19.16
2022-09-14T06:04:51.314Z,19.16
2022-09-14T06:07:21.415Z,19.21
2022-09-14T06:09:51.944Z,19.27
2022-09-14T06:12:21.999Z,19.29
2022-09-14T06:14:52.049Z,19.32
2022-09-14T06:17:24.759Z,19.32
2022-09-14T06:19:55.017Z,19.34
2022-09-14T06:22:25.104Z,19.41
2022-09-14T06:24:55.171Z,19.46
2022-09-14T06:27:25.330Z,19.48
2022-09-14T06:29:55.342Z,19.55
2022-09-14T06:32:28.029Z,19.56
2022-09-14T06:34:58.074Z,19.60
2022-09-14T06:37:28.157Z,19.61
2022-09-14T06:39:58.313Z,19.68
2022-09-14T06:42:28.487Z,19.70
2022-09-14T06:45:00.263Z,19.67
2022-09-14T06:47:37.278Z,19.70
2022-09-14T06:50:09.001Z,19.70
2022-09-14T06:52:40.255Z,19.71
2022-09-14T06:55:11.669Z,19.68
2022-09-14T06:57:43.075Z,19.70
2022-09-14T07:00:15.154Z,19.67
2022-09-14T07:02:50.378Z,19.67
2022-09-14T07:05:22.684Z,19.71
2022-09-14T07:07:55.195Z,19.71
2022-09-14T07:10:28.168Z,19.73
2022-09-14T07:12:58.532Z,19.79
2022-09-14T07:15:28.624Z,19.79
2022-09-14T07:18:01.691Z,19.83
2022-09-14T07:20:31.760Z,19.84
2022-09-14T07:23:01.856Z,19.89
2022-09-14T07:25:31.905Z,19.89
2022-09-14T07:28:03.131Z,19.86
2022-09-14T07:30:33.292Z,19.88
2022-09-14T07:33:06.240Z,19.88
2022-09-14T07:35:36.310Z,19.86
2022-09-14T07:38:06.391Z,19.81
2022-09-14T07:40:36.448Z,19.82
2022-09-14T07:43:06.590Z,19.86
2022-09-14T07:45:39.010Z,19.79
2022-09-14T07:48:11.733Z,19.79
2022-09-14T07:50:41.766Z,19.81
2022-09-14T07:53:11.830Z,19.84
2022-09-14T07:55:42.132Z,19.90
2022-09-14T07:58:12.162Z,19.98
2022-09-14T08:00:42.193Z,20.03
2022-09-14T08:03:15.284Z,20.00
2022-09-14T08:05:45.313Z,19.89
2022-09-14T08:08:15.379Z,19.88
2022-09-14T08:10:45.413Z,19.83
2022-09-14T08:13:16.666Z,19.73
2022-09-14T08:15:46.640Z,19.70
2022-09-14T08:18:19.199Z,19.73
2022-09-14T08:20:49.633Z,19.76
2022-09-14T08:23:19.678Z,19.86
2022-09-14T08:25:49.810Z,19.95
2022-09-14T08:28:19.897Z,20.06
2022-09-14T08:30:50.072Z,20.07
2022-09-14T08:33:22.826Z,20.00
2022-09-14T08:36:00.100Z,20.10
2022-09-14T08:38:30.634Z,20.14
2022-09-14T08:41:12.757Z,20.10
2022-09-14T08:43:42.813Z,20.12
2022-09-14T08:46:30.218Z,20.20
2022-09-14T08:49:04.606Z,20.23
2022-09-14T08:51:34.691Z,20.28
2022-09-14T08:54:04.835Z,20.37
2022-09-14T08:56:36.923Z,20.27
2022-09-14T08:59:41.226Z,20.30
2022-09-14T09:02:39.114Z,20.25
2022-09-14T09:05:29.008Z,20.14
2022-09-14T09:08:07.169Z,20.10
2022-09-14T09:10:40.878Z,20.20
2022-09-14T09:13:18.985Z,20.33
2022-09-14T09:15:53.029Z,20.47
2022-09-14T09:18:42.861Z,20.52
2022-09-14T09:21:20.017Z,20.55
2022-09-14T09:23:50.257Z,20.61
2022-09-14T09:26:29.030Z,20.63
2022-09-14T09:29:03.094Z,20.67
2022-09-14T09:31:56.540Z,20.56
2022-09-14T09:34:56.137Z,20.49
2022-09-14T09:37:43.138Z,20.44
2022-09-14T09:40:22.985Z,20.48
2022-09-14T09:43:11.579Z,20.50
2022-09-14T09:45:58.936Z,20.55
2022-09-14T09:48:34.906Z,20.53
2022-09-14T09:51:12.721Z,20.49
2022-09-14T09:53:52.638Z,20.63
2022-09-14T09:56:26.448Z,20.68
2022-09-14T09:58:56.764Z,20.74
2022-09-14T10:01:32.574Z,20.71
2022-09-14T10:04:28.941Z,20.60
2022-09-14T10:06:59.920Z,20.53
2022-09-14T10:09:32.765Z,20.49
2022-09-14T10:12:06.156Z,20.38
2022-09-14T10:14:40.572Z,20.42
2022-09-14T10:17:20.345Z,20.49
2022-09-14T10:19:52.395Z,20.27
2022-09-14T10:22:29.940Z,20.15
2022-09-14T10:25:05.820Z,20.24
2022-09-14T10:27:42.297Z,20.30
2022-09-14T10:30:18.977Z,20.34
2022-09-14T10:32:59.296Z,20.23
2022-09-14T10:35:45.998Z,20.12
2022-09-14T10:38:33.030Z,19.96
2022-09-14T10:41:26.302Z,20.02
2022-09-14T10:44:30.179Z,19.94
2022-09-14T10:47:32.958Z,20.04
2022-09-14T10:50:26.098Z,20.03
2022-09-14T10:53:09.589Z,20.01
2022-09-14T10:55:49.950Z,20.01
2022-09-14T10:58:37.500Z,20.12
2022-09-14T11:01:27.431Z,20.35
2022-09-14T11:04:08.926Z,20.44
2022-09-14T11:06:56.802Z,20.42
2022-09-14T11:09:33.187Z,20.38
2022-09-14T11:12:12.680Z,20.35
2022-09-14T11:15:08.410Z,20.34
2022-09-14T11:17:58.263Z,20.21
2022-09-14T11:20:41.923Z,20.24
2022-09-14T11:23:29.387Z,20.26
2022-09-14T11:26:03.924Z,20.24
2022-09-14T11:28:41.137Z,20.27
2022-09-14T11:31:21.433Z,20.19
2022-09-14T11:34:00.321Z,20.14
2022-09-14T11:36:36.469Z,20.02
2022-09-14T11:39:20.501Z,19.95
2022-09-14T11:41:56.215Z,20.01
2022-09-14T11:44:32.952Z,19.92
2022-09-14T11:47:12.935Z,20.04
2022-09-14T11:49:58.376Z,20.07
2022-09-14T11:52:31.283Z,20.14
2022-09-14T11:55:03.899Z,20.14
2022-09-14T11:57:36.441Z,20.20
2022-09-14T12:00:12.475Z,20.23
2022-09-14T12:03:04.599Z,20.38
2022-09-14T12:05:38.979Z,20.54
2022-09-14T12:08:42.239Z,20.47
2022-09-14T12:11:36.116Z,20.54
2022-09-14T12:14:40.729Z,20.67
2022-09-14T12:17:41.253Z,20.66
2022-09-14T12:20:41.988Z,20.55
2022-09-14T12:23:28.149Z,20.58
2022-09-14T12:26:08.478Z,20.53
2022-09-14T12:28:50.782Z,20.56
2022-09-14T12:32:23.656Z,20.44
2022-09-14T12:35:48.719Z,20.34
2022-09-14T12:38:45.060Z,20.31
2022-09-14T12:42:00.980Z,20.27
2022-09-14T12:44:41.097Z,20.22
2022-09-14T12:47:55.063Z,20.31
2022-09-14T12:50:25.637Z,20.53
2022-09-14T12:53:22.219Z,20.56
2022-09-14T12:56:05.967Z,20.57
2022-09-14T12:59:04.181Z,20.51
2022-09-14T13:01:46.823Z,20.58
2022-09-14T13:04:27.944Z,20.68
2022-09-14T13:07:00.904Z,20.98
2022-09-14T13:09:35.359Z,21.10
2022-09-14T13:12:08.544Z,21.10
2022-09-14T13:14:49.861Z,21.26
2022-09-14T13:17:20.472Z,21.37
2022-09-14T13:19:57.018Z,21.62
2022-09-14T13:22:31.942Z,21.56
2022-09-14T13:25:04.912Z,21.57
2022-09-14T13:27:38.083Z,21.85
2022-09-14T13:30:22.018Z,22.21
2022-09-14T13:32:56.182Z,22.69
2022-09-14T13:35:33.530Z,22.83
2022-09-14T13:38:10.870Z,22.69
2022-09-14T13:40:43.666Z,22.52
2022-09-14T13:43:14.368Z,22.48
2022-09-14T13:45:44.326Z,22.51
2022-09-14T13:48:18.209Z,22.50
2022-09-14T13:50:52.033Z,22.36
2022-09-14T13:53:45.756Z,22.23
2022-09-14T13:56:31.558Z,21.88
2022-09-14T13:59:22.604Z,21.48
2022-09-14T14:02:03.369Z,21.32
2022-09-14T14:04:37.273Z,21.13
2022-09-14T14:07:24.054Z,21.09
2022-09-14T14:09:57.501Z,21.03
2022-09-14T14:12:32.814Z,20.89
2022-09-14T14:15:06.310Z,20.71
2022-09-14T14:17:41.395Z,20.53
2022-09-14T14:20:35.658Z,20.52
2022-09-14T14:23:23.206Z,20.60
2022-09-14T14:25:55.586Z,20.69
2022-09-14T14:28:32.601Z,20.74
2022-09-14T14:31:08.843Z,20.76
2022-09-14T14:33:46.533Z,20.74
2022-09-14T14:36:17.663Z,20.68
2022-09-14T14:38:48.606Z,20.60
2022-09-14T14:41:22.570Z,20.57
2022-09-14T14:43:55.534Z,20.54
2022-09-14T14:46:25.634Z,20.55
2022-09-14T14:48:55.739Z,20.51
2022-09-14T14:51:25.834Z,20.48
2022-09-14T14:53:56.282Z,20.50
2022-09-14T14:56:26.318Z,20.50
2022-09-14T14:59:02.190Z,20.50
2022-09-14T15:01:32.993Z,20.52
2022-09-14T15:04:03.190Z,20.57
2022-09-14T15:06:33.535Z,20.60
2022-09-14T15:09:06.363Z,20.55
2022-09-14T15:11:38.413Z,20.54
2022-09-14T15:14:14.376Z,20.55
2022-09-14T15:16:46.013Z,20.55
2022-09-14T15:19:16.719Z,20.58
2022-09-14T15:21:46.815Z,20.52
2022-09-14T15:24:16.929Z,20.46
2022-09-14T15:26:47.049Z,20.50
2022-09-14T15:29:20.440Z,20.54
2022-09-14T15:31:50.543Z,20.49
2022-09-14T15:34:20.742Z,20.50
2022-09-14T15:36:53.152Z,20.55
2022-09-14T15:39:25.629Z,20.52
2022-09-14T15:41:56.626Z,20.55
2022-09-14T15:44:30.997Z,20.56
2022-09-14T15:47:01.490Z,20.59
2022-09-14T15:49:31.656Z,20.61
2022-09-14T15:52:01.844Z,20.62
2022-09-14T15:54:37.260Z,20.62
2022-09-14T15:57:11.093Z,20.63
2022-09-14T15:59:43.749Z,20.62
2022-09-14T16:02:14.794Z,20.61
2022-09-14T16:04:44.932Z,20.61
2022-09-14T16:07:15.522Z,20.61
2022-09-14T16:09:45.996Z,20.54
2022-09-14T16:12:16.809Z,20.50
2022-09-14T16:14:49.967Z,20.52
2022-09-14T16:17:20.074Z,20.54
2022-09-14T16:19:52.029Z,20.54
2022-09-14T16:22:22.216Z,20.55
2022-09-14T16:24:52.476Z,20.53
2022-09-14T16:27:22.622Z,20.52
2022-09-14T16:29:55.406Z,20.48
2022-09-14T16:32:25.577Z,20.45
2022-09-14T16:34:55.939Z,20.48
2022-09-14T16:37:25.974Z,20.43
2022-09-14T16:39:56.101Z,20.40
2022-09-14T16:42:26.380Z,20.37
2022-09-14T16:44:59.068Z,20.38
2022-09-14T16:47:29.291Z,20.37
2022-09-14T16:49:59.419Z,20.37
2022-09-14T16:52:29.888Z,20.27
2022-09-14T16:55:00.104Z,20.21
2022-09-14T16:57:30.191Z,20.26
2022-09-14T17:00:03.451Z,20.31
2022-09-14T17:02:33.620Z,20.28
2022-09-14T17:05:03.861Z,20.18
2022-09-14T17:07:33.968Z,20.11
2022-09-14T17:10:04.143Z,20.15
2022-09-14T17:12:34.243Z,20.18
2022-09-14T17:15:07.858Z,20.18
2022-09-14T17:17:37.953Z,20.10
2022-09-14T17:20:10.284Z,20.08
2022-09-14T17:22:40.338Z,20.16
2022-09-14T17:25:16.721Z,20.13
2022-09-14T17:27:46.992Z,20.13
2022-09-14T17:30:20.138Z,20.15
2022-09-14T17:32:50.198Z,20.19
2022-09-14T17:35:20.284Z,20.20
2022-09-14T17:37:50.369Z,20.21
2022-09-14T17:40:20.768Z,20.16
2022-09-14T17:42:50.881Z,20.18
2022-09-14T17:45:23.716Z,20.18
2022-09-14T17:47:53.796Z,20.17
2022-09-14T17:50:24.008Z,20.11
2022-09-14T17:52:54.388Z,20.07
2022-09-14T17:55:24.524Z,20.12
2022-09-14T17:57:54.699Z,20.17
2022-09-14T18:00:27.511Z,20.19
2022-09-14T18:02:57.850Z,20.18
2022-09-14T18:05:28.334Z,20.20
2022-09-14T18:07:58.410Z,20.21
2022-09-14T18:10:28.580Z,20.19
2022-09-14T18:12:58.707Z,20.18
2022-09-14T18:15:35.927Z,20.19
2022-09-14T18:18:08.506Z,20.14
2022-09-14T18:20:40.330Z,20.00
2022-09-14T18:23:10.479Z,19.99
2022-09-14T18:25:43.522Z,20.03
2022-09-14T18:28:13.628Z,20.03
2022-09-14T18:30:46.318Z,19.99
2022-09-14T18:33:17.279Z,19.82
2022-09-14T18:35:47.324Z,19.76
2022-09-14T18:38:17.402Z,19.82
2022-09-14T18:40:47.459Z,19.91
2022-09-14T18:43:19.010Z,19.89
2022-09-14T18:45:53.323Z,19.89
2022-09-14T18:48:23.422Z,19.86
2022-09-14T18:50:53.641Z,19.81
2022-09-14T18:53:23.812Z,19.77
2022-09-14T18:55:53.917Z,19.75
2022-09-14T18:58:24.057Z,19.77
2022-09-14T19:00:56.779Z,19.77
2022-09-14T19:03:26.876Z,19.85
2022-09-14T19:05:56.922Z,19.82
2022-09-14T19:08:27.257Z,19.77
2022-09-14T19:10:57.451Z,19.72
2022-09-14T19:13:27.603Z,19.66
2022-09-14T19:16:00.285Z,19.60
2022-09-14T19:18:30.436Z,19.57
2022-09-14T19:21:06.802Z,19.52
2022-09-14T19:23:37.825Z,19.55
2022-09-14T19:26:08.830Z,19.57
2022-09-14T19:28:39.757Z,19.65
2022-09-14T19:31:15.245Z,19.67
2022-09-14T19:33:46.397Z,19.50
2022-09-14T19:36:20.240Z,19.39
2022-09-14T19:38:51.551Z,19.17
2022-09-14T19:41:23.184Z,19.04
2022-09-14T19:43:53.354Z,19.10
2022-09-14T19:46:26.452Z,19.11
2022-09-14T19:48:57.146Z,18.89
2022-09-14T19:51:32.432Z,18.89
2022-09-14T19:54:03.530Z,18.97
2022-09-14T19:56:34.971Z,19.08
2022-09-14T19:59:07.373Z,19.08
2022-09-14T20:01:42.039Z,19.01
2022-09-14T20:04:13.306Z,19.06
2022-09-14T20:06:47.248Z,19.09
2022-09-14T20:09:20.446Z,19.11
2022-09-14T20:11:53.196Z,18.98
2022-09-14T20:14:25.954Z,18.90
2022-09-14T20:17:01.546Z,18.90
2022-09-14T20:19:35.809Z,18.94
2022-09-14T20:22:05.906Z,18.93
2022-09-14T20:24:36.016Z,18.91
2022-09-14T20:27:06.373Z,18.89
2022-09-14T20:29:37.415Z,18.87
2022-09-14T20:32:10.180Z,18.71
2022-09-14T20:34:40.293Z,18.62
2022-09-14T20:37:10.373Z,18.59
2022-09-14T20:39:41.094Z,18.63
2022-09-14T20:42:11.164Z,18.65
2022-09-14T20:44:41.352Z,18.69
2022-09-14T20:47:14.127Z,18.71
2022-09-14T20:49:44.998Z,18.73
2022-09-14T20:52:15.785Z,18.79
2022-09-14T20:54:45.968Z,18.76
2022-09-14T20:57:16.011Z,18.65
2022-09-14T20:59:46.032Z,18.64
2022-09-14T21:02:18.715Z,18.70
2022-09-14T21:04:49.074Z,18.57
2022-09-14T21:07:19.187Z,18.45
2022-09-14T21:09:49.538Z,18.40
2022-09-14T21:12:19.753Z,18.36
2022-09-14T21:14:50.142Z,18.20
2022-09-14T21:17:22.981Z,18.15
2022-09-14T21:19:53.074Z,18.22
2022-09-14T21:22:23.209Z,18.29
2022-09-14T21:24:53.407Z,18.26
2022-09-14T21:27:23.561Z,18.19
2022-09-14T21:29:53.729Z,18.21
2022-09-14T21:32:26.548Z,18.27
2022-09-14T21:34:56.678Z,18.26
2022-09-14T21:37:27.956Z,18.16
2022-09-14T21:39:58.394Z,18.14
2022-09-14T21:42:28.665Z,18.21
2022-09-14T21:44:59.536Z,18.24
2022-09-14T21:47:32.303Z,18.22
2022-09-14T21:50:02.443Z,18.24
2022-09-14T21:52:32.638Z,18.24
2022-09-14T21:55:02.860Z,18.23
2022-09-14T21:57:32.989Z,18.16
2022-09-14T22:00:03.213Z,17.98
2022-09-14T22:02:39.503Z,18.06
2022-09-14T22:05:10.651Z,18.06
2022-09-14T22:07:42.446Z,18.04
2022-09-14T22:10:13.305Z,18.06
2022-09-14T22:12:44.549Z,18.05
2022-09-14T22:15:16.078Z,17.97
2022-09-14T22:17:48.987Z,17.96
2022-09-14T22:20:19.579Z,18.01
2022-09-14T22:22:49.774Z,17.95
2022-09-14T22:25:21.093Z,17.86
2022-09-14T22:27:51.411Z,17.81
2022-09-14T22:30:21.775Z,17.80
2022-09-14T22:32:54.561Z,17.84
2022-09-14T22:35:24.707Z,17.84
2022-09-14T22:37:55.141Z,17.80
2022-09-14T22:40:28.574Z,17.69
2022-09-14T22:42:58.808Z,17.70
2022-09-14T22:45:28.989Z,17.70
2022-09-14T22:48:01.861Z,17.70
2022-09-14T22:50:31.937Z,17.68
2022-09-14T22:53:02.100Z,17.72
2022-09-14T22:55:32.352Z,17.79
2022-09-14T22:58:02.396Z,17.76
2022-09-14T23:00:32.679Z,17.70
2022-09-14T23:03:05.796Z,17.70
2022-09-14T23:05:36.692Z,17.64
2022-09-14T23:08:08.150Z,17.58
2022-09-14T23:10:40.568Z,17.58
2022-09-14T23:13:10.727Z,17.55
2022-09-14T23:15:42.039Z,17.44
2022-09-14T23:18:15.651Z,17.41
2022-09-14T23:20:47.700Z,17.35
2022-09-14T23:23:17.816Z,17.33
2022-09-14T23:25:47.843Z,17.31
2022-09-14T23:28:18.018Z,17.37
2022-09-14T23:30:55.498Z,17.36
2022-09-14T23:33:28.892Z,17.27
2022-09-14T23:35:59.028Z,17.30
2022-09-14T23:38:29.574Z,17.35
2022-09-14T23:41:00.521Z,17.36
2022-09-14T23:43:30.606Z,17.34
2022-09-14T23:46:00.710Z,17.29
2022-09-14T23:48:33.498Z,17.28
2022-09-14T23:51:07.015Z,17.20
2022-09-14T23:53:38.004Z,17.20
2022-09-14T23:56:09.266Z,17.17
2022-09-14T23:58:41.510Z,17.16
